createdAt,value
2019-02-12T00:00:27.400Z,2.10
2019-02-12T00:02:56.493Z,2.10
2019-02-12T00:05:24.944Z,2.10
2019-02-12T00:07:53.395Z,2.10
2019-02-12T00:10:21.814Z,2.20
2019-02-12T00:12:50.224Z,2.20
2019-02-12T00:15:22.233Z,2.10
2019-02-12T00:17:50.794Z,2.10
2019-02-12T00:20:19.263Z,2.10
2019-02-12T00:22:47.709Z,2.10
2019-02-12T00:25:16.151Z,2.20
2019-02-12T00:27:44.627Z,2.20
2019-02-12T00:30:17.430Z,2.20
2019-02-12T00:32:45.974Z,2.20
2019-02-12T00:35:14.392Z,2.20
2019-02-12T00:37:42.807Z,2.20
2019-02-12T00:40:11.232Z,2.10
2019-02-12T00:42:39.709Z,2.10
2019-02-12T00:45:14.439Z,2.10
2019-02-12T00:47:42.989Z,2.20
2019-02-12T00:50:11.875Z,2.10
2019-02-12T00:52:40.316Z,2.10
2019-02-12T00:55:09.676Z,2.10
2019-02-12T00:57:38.094Z,2.20
2019-02-12T01:00:16.178Z,2.10
2019-02-12T01:02:44.617Z,2.20
2019-02-12T01:05:13.555Z,2.20
2019-02-12T01:07:42.082Z,2.20
2019-02-12T01:10:11.723Z,2.20
2019-02-12T01:12:40.142Z,2.10
2019-02-12T01:15:18.231Z,2.10
2019-02-12T01:17:46.664Z,2.20
2019-02-12T01:20:15.532Z,2.30
2019-02-12T01:22:43.942Z,2.30
2019-02-12T01:25:12.442Z,2.30
2019-02-12T01:27:40.882Z,2.40
2019-02-12T01:30:17.115Z,2.40
2019-02-12T01:32:45.996Z,2.40
2019-02-12T01:35:14.659Z,2.30
2019-02-12T01:37:43.123Z,2.30
2019-02-12T01:40:12.818Z,2.40
2019-02-12T01:42:41.238Z,2.40
2019-02-12T01:45:14.606Z,2.40
2019-02-12T01:47:43.039Z,2.40
2019-02-12T01:50:12.822Z,2.40
2019-02-12T01:52:41.388Z,2.40
2019-02-12T01:55:09.759Z,2.40
2019-02-12T01:57:38.195Z,2.40
2019-02-12T02:00:09.873Z,2.40
2019-02-12T02:02:38.444Z,2.30
2019-02-12T02:05:09.293Z,2.30
2019-02-12T02:07:37.761Z,2.30
2019-02-12T02:10:09.708Z,2.30
2019-02-12T02:12:38.122Z,2.30
2019-02-12T02:15:09.514Z,2.30
2019-02-12T02:17:38.298Z,2.30
2019-02-12T02:20:10.063Z,2.20
2019-02-12T02:22:38.452Z,2.30
2019-02-12T02:25:09.807Z,2.30
2019-02-12T02:27:38.248Z,2.20
2019-02-12T02:30:10.021Z,2.20
2019-02-12T02:32:38.506Z,2.20
2019-02-12T02:35:07.086Z,2.20
2019-02-12T02:37:35.552Z,2.20
2019-02-12T02:40:05.827Z,2.20
2019-02-12T02:42:34.315Z,2.20
2019-02-12T02:45:02.959Z,2.20
2019-02-12T02:47:31.375Z,2.20
2019-02-12T02:49:59.813Z,2.10
2019-02-12T02:52:28.223Z,2.20
2019-02-12T02:54:56.669Z,2.20
2019-02-12T02:57:25.082Z,2.20
2019-02-12T02:59:53.575Z,2.20
2019-02-12T03:02:21.997Z,2.20
2019-02-12T03:04:50.433Z,2.20
2019-02-12T03:07:19.270Z,2.20
2019-02-12T03:09:47.773Z,2.30
2019-02-12T03:12:16.203Z,2.20
2019-02-12T03:14:44.883Z,2.20
2019-02-12T03:17:13.428Z,2.00
2019-02-12T03:19:42.051Z,1.80
2019-02-12T03:22:10.507Z,1.80
2019-02-12T03:24:39.032Z,1.80
2019-02-12T03:27:07.642Z,1.80
2019-02-12T03:29:36.051Z,1.80
2019-02-12T03:32:04.534Z,1.80
2019-02-12T03:34:36.082Z,1.80
2019-02-12T03:37:04.534Z,1.70
2019-02-12T03:39:32.972Z,1.80
2019-02-12T03:42:01.518Z,1.80
2019-02-12T03:44:30.145Z,1.70
2019-02-12T03:46:58.565Z,1.70
2019-02-12T03:49:30.703Z,1.70
2019-02-12T03:51:59.116Z,1.70
2019-02-12T03:54:27.627Z,1.70
2019-02-12T03:56:56.150Z,1.70
2019-02-12T03:59:24.738Z,1.70
2019-02-12T04:01:53.243Z,1.70
2019-02-12T04:04:25.798Z,1.80
2019-02-12T04:06:54.227Z,1.80
2019-02-12T04:09:22.698Z,1.80
2019-02-12T04:11:51.207Z,1.80
2019-02-12T04:14:19.657Z,1.80
2019-02-12T04:16:48.092Z,1.80
2019-02-12T04:19:16.593Z,1.80
2019-02-12T04:21:44.994Z,1.80
2019-02-12T04:24:13.439Z,1.80
2019-02-12T04:26:41.963Z,1.80
2019-02-12T04:29:10.499Z,1.80
2019-02-12T04:31:38.923Z,1.80
2019-02-12T04:34:12.023Z,1.80
2019-02-12T04:36:43.464Z,1.80
2019-02-12T04:39:11.875Z,1.80
2019-02-12T04:41:40.492Z,1.80
2019-02-12T04:44:08.955Z,1.80
2019-02-12T04:46:37.371Z,1.90
2019-02-12T04:49:08.951Z,1.90
2019-02-12T04:51:40.394Z,1.90
2019-02-12T04:54:08.955Z,1.90
2019-02-12T04:56:37.392Z,1.90
2019-02-12T04:59:05.802Z,1.90
2019-02-12T05:01:34.333Z,1.90
2019-02-12T05:04:07.203Z,1.90
2019-02-12T05:06:38.697Z,1.90
2019-02-12T05:09:15.631Z,1.90
2019-02-12T05:11:47.424Z,1.90
2019-02-12T05:14:15.902Z,1.90
2019-02-12T05:16:44.338Z,1.80
2019-02-12T05:19:15.802Z,1.80
2019-02-12T05:21:47.419Z,1.80
2019-02-12T05:24:15.885Z,1.90
2019-02-12T05:26:44.455Z,1.80
2019-02-12T05:29:12.894Z,1.80
2019-02-12T05:31:41.337Z,1.80
2019-02-12T05:34:13.970Z,1.80
2019-02-12T05:36:42.632Z,1.80
2019-02-12T05:39:11.078Z,1.80
2019-02-12T05:41:39.484Z,1.80
2019-02-12T05:44:07.923Z,1.80
2019-02-12T05:46:36.350Z,1.80
2019-02-12T05:49:04.961Z,1.90
2019-02-12T05:51:33.396Z,1.90
2019-02-12T05:54:01.805Z,1.90
2019-02-12T05:56:30.288Z,1.90
2019-02-12T05:58:58.692Z,1.90
2019-02-12T06:01:27.258Z,1.80
2019-02-12T06:03:55.808Z,1.80
2019-02-12T06:06:24.204Z,1.90
2019-02-12T06:08:52.704Z,1.80
2019-02-12T06:11:21.147Z,1.80
2019-02-12T06:13:49.544Z,1.80
2019-02-12T06:16:18.022Z,1.80
2019-02-12T06:18:46.490Z,1.80
2019-02-12T06:21:18.778Z,1.80
2019-02-12T06:23:47.227Z,1.90
2019-02-12T06:26:15.874Z,1.80
2019-02-12T06:28:44.387Z,1.80
2019-02-12T06:31:12.859Z,1.80
2019-02-12T06:33:41.254Z,1.80
2019-02-12T06:36:09.670Z,1.80
2019-02-12T06:38:38.180Z,1.80
2019-02-12T06:41:06.816Z,1.80
2019-02-12T06:43:35.331Z,1.80
2019-02-12T06:46:04.785Z,1.80
2019-02-12T06:48:38.833Z,1.90
2019-02-12T06:51:07.344Z,1.90
2019-02-12T06:53:35.810Z,1.80
2019-02-12T06:56:04.326Z,1.90
2019-02-12T06:58:32.756Z,2.00
2019-02-12T07:01:01.166Z,2.00
2019-02-12T07:03:32.679Z,2.00
2019-02-12T07:06:08.079Z,2.00
2019-02-12T07:08:42.243Z,2.00
2019-02-12T07:11:28.694Z,2.00
2019-02-12T07:14:28.779Z,2.00
2019-02-12T07:17:09.199Z,2.00
2019-02-12T07:20:00.164Z,2.00
2019-02-12T07:22:52.640Z,2.00
2019-02-12T07:25:39.151Z,2.00
2019-02-12T07:28:19.213Z,2.00
2019-02-12T07:31:18.055Z,2.10
2019-02-12T07:33:58.288Z,2.10
2019-02-12T07:36:58.791Z,2.10
2019-02-12T07:39:51.314Z,2.10
2019-02-12T07:42:34.285Z,2.10
2019-02-12T07:45:26.827Z,2.10
2019-02-12T07:48:07.423Z,2.20
2019-02-12T07:50:44.845Z,2.30
2019-02-12T07:53:31.619Z,2.30
2019-02-12T07:56:19.954Z,2.30
2019-02-12T07:58:51.819Z,2.40
2019-02-12T08:01:52.305Z,2.40
2019-02-12T08:04:32.525Z,2.30
2019-02-12T08:07:17.390Z,2.30
2019-02-12T08:10:12.839Z,2.30
2019-02-12T08:13:02.919Z,2.30
2019-02-12T08:16:05.402Z,2.40
2019-02-12T08:18:42.918Z,2.40
2019-02-12T08:21:29.627Z,2.40
2019-02-12T08:24:15.807Z,2.40
2019-02-12T08:27:21.979Z,2.50
2019-02-12T08:30:09.738Z,2.50
2019-02-12T08:32:43.915Z,2.60
2019-02-12T08:35:24.138Z,2.70
2019-02-12T08:38:19.715Z,2.80
2019-02-12T08:41:00.721Z,2.70
2019-02-12T08:43:53.404Z,2.80
2019-02-12T08:46:41.495Z,2.90
2019-02-12T08:49:18.855Z,3.00
2019-02-12T08:52:05.361Z,3.10
2019-02-12T08:54:55.782Z,3.10
2019-02-12T08:57:47.841Z,3.00
2019-02-12T09:00:38.919Z,3.10
2019-02-12T09:03:32.843Z,3.20
2019-02-12T09:06:23.806Z,3.20
2019-02-12T09:09:17.795Z,3.10
2019-02-12T09:12:23.913Z,3.20
2019-02-12T09:15:01.395Z,3.20
2019-02-12T09:17:56.783Z,3.20
2019-02-12T09:20:42.748Z,3.20
2019-02-12T09:23:23.110Z,3.30
2019-02-12T09:26:03.507Z,3.40
2019-02-12T09:28:35.021Z,3.30
2019-02-12T09:31:24.623Z,3.30
2019-02-12T09:34:13.990Z,3.30
2019-02-12T09:37:11.006Z,3.40
2019-02-12T09:39:55.777Z,3.40
2019-02-12T09:42:32.948Z,3.40
2019-02-12T09:45:34.803Z,3.50
2019-02-12T09:48:08.944Z,3.60
2019-02-12T09:50:43.131Z,3.60
2019-02-12T09:53:29.591Z,3.50
2019-02-12T09:56:05.546Z,3.60
2019-02-12T09:58:52.388Z,3.50
2019-02-12T10:01:41.780Z,3.60
2019-02-12T10:04:25.024Z,3.60
2019-02-12T10:07:08.267Z,3.50
2019-02-12T10:09:42.884Z,3.60
2019-02-12T10:12:31.055Z,3.60
2019-02-12T10:15:11.275Z,3.50
2019-02-12T10:18:02.208Z,3.60
2019-02-12T10:20:41.859Z,3.50
2019-02-12T10:23:32.640Z,3.60
2019-02-12T10:26:04.136Z,3.60
2019-02-12T10:29:10.390Z,3.70
2019-02-12T10:31:40.967Z,4.00
2019-02-12T10:34:10.225Z,3.90
2019-02-12T10:36:38.863Z,3.90
2019-02-12T10:39:13.578Z,4.00
2019-02-12T10:41:42.016Z,4.00
2019-02-12T10:44:10.626Z,4.10
2019-02-12T10:46:39.042Z,4.20
2019-02-12T10:49:07.459Z,4.40
2019-02-12T10:51:35.903Z,4.50
2019-02-12T10:54:04.447Z,4.30
2019-02-12T10:56:36.533Z,4.20
2019-02-12T10:59:04.951Z,4.30
2019-02-12T11:01:33.390Z,4.50
2019-02-12T11:04:01.818Z,4.50
2019-02-12T11:06:30.258Z,4.70
2019-02-12T11:08:58.858Z,4.50
2019-02-12T11:11:27.275Z,4.30
2019-02-12T11:13:55.715Z,4.30
2019-02-12T11:16:24.162Z,4.40
2019-02-12T11:18:52.577Z,4.50
2019-02-12T11:21:21.015Z,4.50
2019-02-12T11:23:49.419Z,4.60
2019-02-12T11:26:21.199Z,4.60
2019-02-12T11:28:49.651Z,4.60
2019-02-12T11:31:18.078Z,4.60
2019-02-12T11:33:48.030Z,4.40
2019-02-12T11:36:16.475Z,4.50
2019-02-12T11:38:45.014Z,4.60
2019-02-12T11:41:13.448Z,4.60
2019-02-12T11:43:41.846Z,4.50
2019-02-12T11:46:10.290Z,4.40
2019-02-12T11:48:38.690Z,4.50
2019-02-12T11:51:07.195Z,4.70
2019-02-12T11:53:35.613Z,4.40
2019-02-12T11:56:06.957Z,4.30
2019-02-12T11:58:35.367Z,4.40
2019-02-12T12:01:04.879Z,4.40
2019-02-12T12:03:33.301Z,4.30
2019-02-12T12:06:01.771Z,4.20
2019-02-12T12:08:30.223Z,4.10
2019-02-12T12:10:58.647Z,4.10
2019-02-12T12:13:27.061Z,4.10
2019-02-12T12:15:55.503Z,4.20
2019-02-12T12:18:23.906Z,4.20
2019-02-12T12:20:52.344Z,4.20
2019-02-12T12:23:20.762Z,4.30
2019-02-12T12:25:52.244Z,4.30
2019-02-12T12:28:20.686Z,4.40
2019-02-12T12:30:49.098Z,4.40
2019-02-12T12:33:17.511Z,4.40
2019-02-12T12:35:46.189Z,4.40
2019-02-12T12:38:14.767Z,4.30
2019-02-12T12:40:43.246Z,4.30
2019-02-12T12:43:11.674Z,4.20
2019-02-12T12:45:40.156Z,4.30
2019-02-12T12:48:08.587Z,4.30
2019-02-12T12:50:37.013Z,4.40
2019-02-12T12:53:05.446Z,4.30
2019-02-12T12:55:33.898Z,4.40
2019-02-12T12:58:02.343Z,4.50
2019-02-12T13:00:30.931Z,4.40
2019-02-12T13:02:59.404Z,4.40
2019-02-12T13:05:27.804Z,4.40
2019-02-12T13:07:56.256Z,4.50
2019-02-12T13:10:24.660Z,4.50
2019-02-12T13:12:53.065Z,4.50
2019-02-12T13:15:21.497Z,4.50
2019-02-12T13:17:49.898Z,4.60
2019-02-12T13:20:19.866Z,4.70
2019-02-12T13:22:48.289Z,4.90
2019-02-12T13:25:16.726Z,4.60
2019-02-12T13:27:45.130Z,4.60
2019-02-12T13:30:20.243Z,4.60
2019-02-12T13:32:48.690Z,4.50
2019-02-12T13:35:17.144Z,4.50
2019-02-12T13:37:45.550Z,4.40
2019-02-12T13:40:14.370Z,4.60
2019-02-12T13:42:42.778Z,4.60
2019-02-12T13:45:16.507Z,4.50
2019-02-12T13:47:45.029Z,4.50
2019-02-12T13:50:14.068Z,4.30
2019-02-12T13:52:42.915Z,4.40
2019-02-12T13:55:17.452Z,4.50
2019-02-12T13:57:46.179Z,4.50
2019-02-12T14:00:16.116Z,4.50
2019-02-12T14:02:44.625Z,4.50
2019-02-12T14:05:18.541Z,4.40
2019-02-12T14:07:47.039Z,4.40
2019-02-12T14:10:15.510Z,4.50
2019-02-12T14:12:43.914Z,4.40
2019-02-12T14:15:13.875Z,4.50
2019-02-12T14:17:42.323Z,4.50
2019-02-12T14:20:18.233Z,4.50
2019-02-12T14:22:46.684Z,4.50
2019-02-12T14:25:16.140Z,4.50
2019-02-12T14:27:47.925Z,4.60
2019-02-12T14:30:19.679Z,4.60
2019-02-12T14:32:48.067Z,4.40
2019-02-12T14:35:16.675Z,4.30
2019-02-12T14:37:45.094Z,4.20
2019-02-12T14:40:14.889Z,4.30
2019-02-12T14:42:43.287Z,4.20
2019-02-12T14:45:18.990Z,4.20
2019-02-12T14:47:47.440Z,4.20
2019-02-12T14:50:18.148Z,4.10
2019-02-12T14:52:46.630Z,4.20
2019-02-12T14:55:15.151Z,4.20
2019-02-12T14:57:43.576Z,4.20
2019-02-12T15:00:19.075Z,4.20
2019-02-12T15:02:47.523Z,4.20
2019-02-12T15:05:15.996Z,4.20
2019-02-12T15:07:44.487Z,4.30
2019-02-12T15:10:14.342Z,4.30
2019-02-12T15:12:44.740Z,4.30
2019-02-12T15:15:13.482Z,4.20
2019-02-12T15:17:42.088Z,4.20
2019-02-12T15:20:14.320Z,4.20
2019-02-12T15:22:42.725Z,4.20
2019-02-12T15:25:12.262Z,4.30
2019-02-12T15:27:40.702Z,4.30
2019-02-12T15:30:16.941Z,4.30
2019-02-12T15:32:45.399Z,4.20
2019-02-12T15:35:14.476Z,4.10
2019-02-12T15:37:42.899Z,4.10
2019-02-12T15:40:13.944Z,4.00
2019-02-12T15:42:42.397Z,3.90
2019-02-12T15:45:16.419Z,3.90
2019-02-12T15:47:49.147Z,3.90
2019-02-12T15:50:17.580Z,3.80
2019-02-12T15:52:46.266Z,3.80
2019-02-12T15:55:14.693Z,3.80
2019-02-12T15:57:45.796Z,3.80
2019-02-12T16:00:20.296Z,3.80
2019-02-12T16:02:48.701Z,3.80
2019-02-12T16:05:17.105Z,3.80
2019-02-12T16:07:47.382Z,3.70
2019-02-12T16:10:19.943Z,3.70
2019-02-12T16:12:49.474Z,3.70
2019-02-12T16:15:21.901Z,3.70
2019-02-12T16:17:49.907Z,3.70
2019-02-12T16:20:18.855Z,3.70
2019-02-12T16:22:47.291Z,3.60
2019-02-12T16:25:16.126Z,3.60
2019-02-12T16:27:44.661Z,3.60
2019-02-12T16:30:21.490Z,3.60
2019-02-12T16:32:49.967Z,3.60
2019-02-12T16:35:18.952Z,3.60
2019-02-12T16:37:47.391Z,3.60
2019-02-12T16:40:17.341Z,3.50
2019-02-12T16:42:45.783Z,3.50
2019-02-12T16:45:17.603Z,3.50
2019-02-12T16:47:46.383Z,3.50
2019-02-12T16:50:14.950Z,3.50
2019-02-12T16:52:43.354Z,3.50
2019-02-12T16:55:11.931Z,3.50
2019-02-12T16:57:49.646Z,3.40
2019-02-12T17:00:18.427Z,3.40
2019-02-12T17:02:47.008Z,3.40
2019-02-12T17:05:16.050Z,3.30
2019-02-12T17:07:45.633Z,3.30
2019-02-12T17:10:14.920Z,3.30
2019-02-12T17:12:43.314Z,3.30
2019-02-12T17:15:13.635Z,3.30
2019-02-12T17:17:42.170Z,3.30
2019-02-12T17:20:13.626Z,3.30
2019-02-12T17:22:42.740Z,3.20
2019-02-12T17:25:11.601Z,3.20
2019-02-12T17:27:40.099Z,3.20
2019-02-12T17:30:16.175Z,3.20
2019-02-12T17:32:44.742Z,3.20
2019-02-12T17:35:13.227Z,3.20
2019-02-12T17:37:41.707Z,3.20
2019-02-12T17:40:15.709Z,3.30
2019-02-12T17:42:44.214Z,3.30
2019-02-12T17:45:17.433Z,3.30
2019-02-12T17:47:45.873Z,3.30
2019-02-12T17:50:15.451Z,3.30
2019-02-12T17:52:45.797Z,3.30
2019-02-12T17:55:14.279Z,3.30
2019-02-12T17:57:42.686Z,3.40
2019-02-12T18:00:23.040Z,3.40
2019-02-12T18:02:51.499Z,3.40
2019-02-12T18:05:20.269Z,3.40
2019-02-12T18:07:48.709Z,3.40
2019-02-12T18:10:17.134Z,3.40
2019-02-12T18:12:45.621Z,3.40
2019-02-12T18:15:15.028Z,3.40
2019-02-12T18:17:43.440Z,3.40
2019-02-12T18:20:14.255Z,3.40
2019-02-12T18:22:51.982Z,3.50
2019-02-12T18:25:20.414Z,3.40
2019-02-12T18:27:48.847Z,3.50
2019-02-12T18:30:18.110Z,3.40
2019-02-12T18:32:46.517Z,3.50
2019-02-12T18:35:15.095Z,3.50
2019-02-12T18:37:43.494Z,3.50
2019-02-12T18:40:16.134Z,3.50
2019-02-12T18:42:44.566Z,3.50
2019-02-12T18:45:15.824Z,3.50
2019-02-12T18:47:48.169Z,3.50
2019-02-12T18:50:23.568Z,3.50
2019-02-12T18:52:51.975Z,3.50
2019-02-12T18:55:20.415Z,3.50
2019-02-12T18:57:48.819Z,3.50
2019-02-12T19:00:22.009Z,3.50
2019-02-12T19:02:50.543Z,3.50
2019-02-12T19:05:19.028Z,3.50
2019-02-12T19:07:47.483Z,3.50
2019-02-12T19:10:17.432Z,3.50
2019-02-12T19:12:45.864Z,3.50
2019-02-12T19:15:16.709Z,3.50
2019-02-12T19:17:48.186Z,3.50
2019-02-12T19:20:56.550Z,3.50
2019-02-12T19:23:25.087Z,3.50
2019-02-12T19:25:53.501Z,3.60
2019-02-12T19:28:21.947Z,3.50
2019-02-12T19:30:50.450Z,3.50
2019-02-12T19:33:18.890Z,3.50
2019-02-12T19:35:47.333Z,3.60
2019-02-12T19:38:15.774Z,3.50
2019-02-12T19:40:44.178Z,3.50
2019-02-12T19:43:12.582Z,3.50
2019-02-12T19:45:45.062Z,3.60
2019-02-12T19:48:13.585Z,3.60
2019-02-12T19:50:42.027Z,3.60
2019-02-12T19:53:11.399Z,3.60
2019-02-12T19:55:39.830Z,3.60
2019-02-12T19:58:08.275Z,3.60
2019-02-12T20:00:36.689Z,3.60
2019-02-12T20:03:05.746Z,3.60
2019-02-12T20:05:34.179Z,3.60
2019-02-12T20:08:02.597Z,3.70
2019-02-12T20:10:31.212Z,3.70
2019-02-12T20:12:59.615Z,3.70
2019-02-12T20:15:28.054Z,3.70
2019-02-12T20:17:56.462Z,3.70
2019-02-12T20:20:24.910Z,3.70
2019-02-12T20:22:53.334Z,3.70
2019-02-12T20:25:21.739Z,3.70
2019-02-12T20:27:50.167Z,3.60
2019-02-12T20:30:19.352Z,3.70
2019-02-12T20:32:47.797Z,3.70
2019-02-12T20:35:19.019Z,3.60
2019-02-12T20:37:47.523Z,3.70
2019-02-12T20:40:15.982Z,3.70
2019-02-12T20:42:44.423Z,3.70
2019-02-12T20:45:15.741Z,3.70
2019-02-12T20:47:54.408Z,3.80
2019-02-12T20:50:22.956Z,3.70
2019-02-12T20:52:51.431Z,3.70
2019-02-12T20:55:19.912Z,3.70
2019-02-12T20:57:48.343Z,3.60
2019-02-12T21:00:19.898Z,3.70
2019-02-12T21:02:50.700Z,3.70
2019-02-12T21:05:19.303Z,3.70
2019-02-12T21:07:47.742Z,3.70
2019-02-12T21:10:23.301Z,3.70
2019-02-12T21:12:51.933Z,3.70
2019-02-12T21:15:22.159Z,3.60
2019-02-12T21:17:50.633Z,3.60
2019-02-12T21:20:19.078Z,3.70
2019-02-12T21:22:47.595Z,3.60
2019-02-12T21:25:16.066Z,3.60
2019-02-12T21:27:44.482Z,3.70
2019-02-12T21:30:19.147Z,3.70
2019-02-12T21:32:47.627Z,3.70
2019-02-12T21:35:19.909Z,3.70
2019-02-12T21:37:48.342Z,3.70
2019-02-12T21:40:23.123Z,3.70
2019-02-12T21:42:51.579Z,3.60
2019-02-12T21:45:20.023Z,3.60
2019-02-12T21:47:48.434Z,3.60
2019-02-12T21:50:16.830Z,3.60
2019-02-12T21:52:48.399Z,3.60
2019-02-12T21:55:19.118Z,3.60
2019-02-12T21:57:47.533Z,3.70
2019-02-12T22:00:20.083Z,3.60
2019-02-12T22:02:48.490Z,3.70
2019-02-12T22:05:24.928Z,3.70
2019-02-12T22:07:53.334Z,3.80
2019-02-12T22:10:25.887Z,3.70
2019-02-12T22:12:54.292Z,3.80
2019-02-12T22:15:22.738Z,3.80
2019-02-12T22:17:51.204Z,3.70
2019-02-12T22:20:22.040Z,3.70
2019-02-12T22:22:50.471Z,3.70
2019-02-12T22:25:18.917Z,3.70
2019-02-12T22:27:47.357Z,3.70
2019-02-12T22:30:21.141Z,3.70
2019-02-12T22:32:49.642Z,3.70
2019-02-12T22:35:18.046Z,3.70
2019-02-12T22:37:49.437Z,3.60
2019-02-12T22:40:18.667Z,3.60
2019-02-12T22:42:47.190Z,3.60
2019-02-12T22:45:23.456Z,3.70
2019-02-12T22:47:51.940Z,3.70
2019-02-12T22:50:20.419Z,3.70
2019-02-12T22:52:52.690Z,3.70
2019-02-12T22:55:21.093Z,3.70
2019-02-12T22:57:49.817Z,3.70
2019-02-12T23:00:46.894Z,3.60
2019-02-12T23:03:15.331Z,3.60
2019-02-12T23:05:43.751Z,3.60
2019-02-12T23:08:12.236Z,3.60
2019-02-12T23:10:40.841Z,3.70
2019-02-12T23:13:09.522Z,3.60
2019-02-12T23:15:37.937Z,3.60
2019-02-12T23:18:06.736Z,3.60
2019-02-12T23:20:35.174Z,3.50
2019-02-12T23:23:06.825Z,3.50
2019-02-12T23:25:35.266Z,3.60
2019-02-12T23:28:03.674Z,3.50
2019-02-12T23:30:32.090Z,3.60
2019-02-12T23:33:00.526Z,3.50
2019-02-12T23:35:28.931Z,3.50
2019-02-12T23:38:01.711Z,3.50
2019-02-12T23:40:30.107Z,3.50
2019-02-12T23:42:58.522Z,3.40
2019-02-12T23:45:26.926Z,3.40
2019-02-12T23:47:55.365Z,3.40
2019-02-12T23:50:23.794Z,3.40
2019-02-12T23:52:52.203Z,3.30
2019-02-12T23:55:20.647Z,3.30
2019-02-12T23:57:49.055Z,3.30
